Estación Meteorológica Peña el Pijo (Robertgarden) [ 01/30/23 14:29:50 CET ]

Fecha Hora Presion(HPa) Temp (°C) Humedad % Rocio (°C) Viento ( m/s) Direccion Lluvia 1Hora(mm) Lluvia 24H(mm) LLuvia Total(mm)
2012-Feb-20 01:01:15 1012.900 -1.2 70 -6.0         153.32
2012-Feb-20 02:01:46 1012.900 -1.7 73 -5.9         153.32
2012-Feb-20 03:01:50 1013.000 -2.4 76 -6.1         153.32
2012-Feb-20 04:01:43 1012.700 -3.1 77 -6.6         153.32
2012-Feb-20 05:01:51 1012.400 -3.4 80 -6.4         153.32
2012-Feb-20 06:01:45 1012.800 -3.7 81 -6.5         153.32
2012-Feb-20 07:01:14 1012.500 -3.9 83 -6.4         153.32
2012-Feb-20 08:01:17 1012.500 -3.7 84 -6.0         153.32
2012-Feb-20 09:01:15 1012.900 -1.9 86 -3.9         153.32
2012-Feb-20 10:01:12 1012.700 3.9 72 -0.7         153.32
2012-Feb-20 11:01:14 1012.300 10.5 43 -1.6         153.32
2012-Feb-20 12:01:13 1012.300 12.3 30 -4.8         153.32
2012-Feb-20 13:01:15 1011.900 13.9 26 -5.5         153.32
2012-Feb-20 14:01:12 1011.300 14.3 25 -5.7         153.32
2012-Feb-20 15:01:13 1011.100 12.9 27 -5.8 2.1 NNE     153.32
2012-Feb-20 16:01:15 1011.100 12.4 28 -5.7         153.32
2012-Feb-20 17:01:15 1011.300 11.4 29 -6.1         153.32
2012-Feb-20 18:01:14 1011.700 8.7 33 -6.8 1.3 NE     153.32
2012-Feb-20 19:01:18 1012.500 6.1 45 -5.0         153.32
2012-Feb-20 20:01:12 1013.300 2.7 52 -6.2         153.32
2012-Feb-20 21:01:13 1014.100 0.1 59 -7.0         153.32
2012-Feb-20 22:01:13 1014.500 -1.4 64 -7.4         153.32
2012-Feb-20 23:01:14 1014.500 -2.1 66 -7.6         153.32

Temperatura Máxima:14°    Temperatura Mínima:-3°
Presión Máxima:1014.500 Hpa    Presión Mínima:1011.100 Hpa


Volver